createdAt,value
2023-05-05T00:00:43.532Z,22.83
2023-05-05T00:05:47.610Z,27.85
2023-05-05T00:10:52.508Z,24.52
2023-05-05T00:15:55.599Z,24.70
2023-05-05T00:20:58.670Z,22.52
2023-05-05T00:26:01.717Z,23.90
2023-05-05T00:31:04.822Z,30.75
2023-05-05T00:36:08.161Z,17.85
2023-05-05T00:41:11.440Z,28.38
2023-05-05T00:46:25.605Z,23.33
2023-05-05T00:51:29.406Z,22.70
2023-05-05T00:56:32.401Z,30.63
2023-05-05T01:01:35.477Z,15.52
2023-05-05T01:06:52.801Z,31.90
2023-05-05T01:12:10.514Z,28.48
2023-05-05T01:17:24.816Z,25.45
2023-05-05T01:22:35.257Z,16.58
2023-05-05T01:27:59.810Z,17.02
2023-05-05T01:33:08.845Z,22.98
2023-05-05T01:38:22.020Z,56.00
2023-05-05T01:43:28.569Z,80.63
2023-05-05T01:48:33.706Z,74.05
2023-05-05T01:53:37.383Z,43.78
2023-05-05T01:58:42.977Z,34.42
2023-05-05T02:03:47.735Z,34.45
2023-05-05T02:08:53.179Z,15.88
2023-05-05T02:13:56.659Z,13.35
2023-05-05T02:19:05.875Z,11.60
2023-05-05T02:24:09.394Z,20.42
2023-05-05T02:29:22.964Z,14.90
2023-05-05T02:34:27.780Z,18.88
2023-05-05T02:39:37.285Z,19.40
2023-05-05T02:44:47.374Z,19.10
2023-05-05T02:49:51.908Z,15.70
2023-05-05T02:54:55.005Z,14.18
2023-05-05T03:00:09.902Z,16.98
2023-05-05T03:05:28.675Z,13.68
2023-05-05T03:10:40.568Z,22.13
2023-05-05T03:15:49.874Z,13.15
2023-05-05T03:20:56.178Z,11.80
2023-05-05T03:25:59.287Z,13.00
2023-05-05T03:31:13.108Z,15.15
2023-05-05T03:36:16.486Z,14.32
2023-05-05T03:41:23.976Z,16.05
2023-05-05T03:46:28.200Z,11.30
2023-05-05T03:51:31.530Z,15.43
2023-05-05T03:56:35.532Z,18.23
2023-05-05T04:01:38.566Z,17.00
2023-05-05T04:06:41.555Z,13.90
2023-05-05T04:11:45.021Z,14.65
2023-05-05T04:16:48.194Z,49.42
2023-05-05T04:21:52.329Z,19.75
2023-05-05T04:26:55.858Z,21.85
2023-05-05T04:31:59.048Z,17.80
2023-05-05T04:37:02.073Z,22.42
2023-05-05T04:42:06.887Z,18.10
2023-05-05T04:47:11.479Z,13.73
2023-05-05T04:52:17.073Z,14.15
2023-05-05T04:57:20.034Z,15.10
2023-05-05T05:02:23.257Z,20.70
2023-05-05T05:07:26.700Z,16.55
2023-05-05T05:12:29.691Z,18.52
2023-05-05T05:17:32.688Z,30.00
2023-05-05T05:22:39.043Z,20.13
2023-05-05T05:27:50.099Z,14.35
2023-05-05T05:32:59.058Z,23.65
2023-05-05T05:38:02.274Z,25.20
2023-05-05T05:43:06.072Z,24.20
2023-05-05T05:48:10.757Z,19.88
2023-05-05T05:53:13.922Z,22.80
2023-05-05T05:58:17.593Z,14.13
2023-05-05T06:03:21.714Z,18.08
2023-05-05T06:08:25.212Z,28.35
2023-05-05T06:13:30.025Z,24.77
2023-05-05T06:18:33.181Z,37.63
2023-05-05T06:23:36.439Z,37.10
2023-05-05T06:28:42.622Z,24.52
2023-05-05T06:33:45.634Z,38.40
2023-05-05T06:38:48.608Z,40.33
2023-05-05T06:43:51.541Z,29.00
2023-05-05T06:48:54.574Z,40.33
2023-05-05T06:53:57.607Z,26.75
2023-05-05T06:59:00.531Z,30.90
2023-05-05T07:04:03.565Z,26.23
2023-05-05T07:09:06.996Z,28.20
2023-05-05T07:14:09.954Z,24.65
2023-05-05T07:19:12.958Z,20.23
2023-05-05T07:24:16.079Z,17.42
2023-05-05T07:29:19.070Z,23.33
2023-05-05T07:34:22.116Z,22.58
2023-05-05T07:39:25.190Z,21.80
2023-05-05T07:44:28.385Z,19.83
2023-05-05T07:49:31.373Z,17.17
2023-05-05T07:54:34.384Z,24.88
2023-05-05T07:59:38.827Z,22.75
2023-05-05T08:04:42.829Z,21.60
2023-05-05T08:09:46.170Z,18.05
2023-05-05T08:14:49.179Z,23.65
2023-05-05T08:19:53.482Z,20.02
2023-05-05T08:24:56.426Z,25.15
2023-05-05T08:29:59.357Z,22.90
2023-05-05T08:35:03.937Z,19.77
2023-05-05T08:40:08.203Z,27.10
2023-05-05T08:45:12.334Z,26.48
2023-05-05T08:50:19.898Z,24.33
2023-05-05T08:55:29.841Z,24.15
2023-05-05T09:00:34.191Z,14.30
2023-05-05T09:05:37.663Z,21.65
2023-05-05T09:10:44.978Z,22.83
2023-05-05T09:15:48.109Z,22.42
2023-05-05T09:20:51.299Z,23.45
2023-05-05T09:26:05.509Z,22.98
2023-05-05T09:31:16.534Z,23.02
2023-05-05T09:36:19.707Z,20.02
2023-05-05T09:41:38.109Z,17.42
2023-05-05T09:46:51.553Z,17.23
2023-05-05T09:51:55.789Z,23.30
2023-05-05T09:56:58.808Z,16.45
2023-05-05T10:02:14.095Z,12.88
2023-05-05T10:07:24.963Z,15.52
2023-05-05T10:12:30.169Z,19.42
2023-05-05T10:17:37.105Z,12.85
2023-05-05T10:22:45.765Z,16.48
2023-05-05T10:27:54.118Z,17.70
2023-05-05T10:38:32.447Z,26.73
2023-05-05T10:43:36.935Z,23.63
2023-05-05T10:49:03.139Z,18.38
2023-05-05T10:54:12.912Z,21.30
2023-05-05T10:59:37.489Z,14.35
2023-05-05T11:04:41.365Z,9.43
2023-05-05T11:10:03.921Z,17.20
2023-05-05T11:15:26.728Z,11.35
2023-05-05T11:20:36.251Z,10.15
2023-05-05T11:25:42.400Z,15.48
2023-05-05T11:30:58.113Z,17.17
2023-05-05T11:36:14.001Z,10.85
2023-05-05T11:41:43.105Z,7.90
2023-05-05T11:46:51.898Z,6.47
2023-05-05T11:52:08.985Z,10.45
2023-05-05T11:57:11.985Z,15.07
2023-05-05T12:02:19.044Z,14.40
2023-05-05T12:07:25.677Z,18.88
2023-05-05T12:12:36.643Z,12.13
2023-05-05T12:17:44.066Z,13.40
2023-05-05T12:22:47.411Z,10.00
2023-05-05T12:27:53.704Z,11.55
2023-05-05T12:33:07.639Z,21.80
2023-05-05T12:38:10.779Z,17.52
2023-05-05T12:43:33.091Z,11.75
2023-05-05T12:48:38.466Z,9.70
2023-05-05T12:53:46.149Z,7.68
2023-05-05T12:58:49.300Z,12.02
2023-05-05T13:04:25.337Z,8.32
2023-05-05T13:09:34.233Z,13.35
2023-05-05T13:14:37.280Z,10.30
2023-05-05T13:19:46.745Z,8.10
2023-05-05T13:24:52.652Z,15.77
2023-05-05T13:29:56.413Z,11.27
2023-05-05T13:34:59.388Z,18.23
2023-05-05T13:40:02.594Z,13.60
2023-05-05T13:45:06.958Z,16.65
2023-05-05T13:50:10.595Z,26.42
2023-05-05T13:55:13.895Z,17.48
2023-05-05T14:00:17.564Z,15.77
2023-05-05T14:05:21.295Z,15.63
2023-05-05T14:10:26.490Z,13.88
2023-05-05T14:15:32.725Z,18.33
2023-05-05T14:20:35.944Z,18.85
2023-05-05T14:25:39.207Z,12.23
2023-05-05T14:30:42.367Z,14.63
2023-05-05T14:35:45.423Z,23.15
2023-05-05T14:40:48.353Z,20.30
2023-05-05T14:45:52.730Z,16.13
2023-05-05T14:50:55.990Z,17.00
2023-05-05T14:55:59.027Z,35.00
2023-05-05T15:01:02.027Z,20.33
2023-05-05T15:06:05.915Z,19.23
2023-05-05T15:11:08.980Z,17.13
2023-05-05T15:16:12.149Z,21.90
2023-05-05T15:21:15.183Z,19.85
2023-05-05T15:26:18.220Z,17.15
2023-05-05T15:31:21.311Z,12.90
2023-05-05T15:36:24.990Z,21.35
2023-05-05T15:41:29.639Z,15.45
2023-05-05T15:46:35.868Z,10.63
2023-05-05T15:51:39.001Z,13.95
2023-05-05T15:56:41.945Z,15.05
2023-05-05T16:01:45.006Z,16.27
2023-05-05T16:06:48.083Z,11.85
2023-05-05T16:11:53.778Z,10.13
2023-05-05T16:16:57.201Z,10.77
2023-05-05T16:22:00.239Z,18.02
2023-05-05T16:27:03.378Z,13.43
2023-05-05T16:32:06.444Z,15.88
2023-05-05T16:37:09.621Z,16.75
2023-05-05T16:42:13.505Z,23.50
2023-05-05T16:47:16.549Z,12.75
2023-05-05T16:52:19.576Z,15.70
2023-05-05T16:57:23.362Z,25.48
2023-05-05T17:02:26.603Z,30.98
2023-05-05T17:07:29.701Z,26.48
2023-05-05T17:12:32.787Z,20.42
2023-05-05T17:17:35.966Z,30.50
2023-05-05T17:22:39.016Z,29.27
2023-05-05T17:27:42.361Z,32.80
2023-05-05T17:32:45.432Z,29.60
2023-05-05T17:37:48.482Z,32.92
2023-05-05T17:42:51.632Z,33.40
2023-05-05T17:47:54.756Z,40.38
2023-05-05T17:52:57.883Z,36.25
2023-05-05T17:58:01.479Z,32.30
2023-05-05T18:03:05.185Z,35.42
2023-05-05T18:08:08.334Z,35.78
2023-05-05T18:13:11.468Z,38.22
2023-05-05T18:18:14.620Z,35.90
2023-05-05T18:23:17.729Z,32.33
2023-05-05T18:28:21.470Z,36.90
2023-05-05T18:33:24.453Z,34.40
2023-05-05T18:38:27.598Z,23.55
2023-05-05T18:43:30.941Z,30.42
2023-05-05T18:48:34.018Z,20.13
2023-05-05T18:53:37.132Z,23.45
2023-05-05T18:58:40.145Z,31.90
2023-05-05T19:03:48.146Z,47.10
2023-05-05T19:08:51.298Z,20.35
2023-05-05T19:13:55.463Z,33.70
2023-05-05T19:19:00.385Z,27.00
2023-05-05T19:24:03.482Z,26.13
2023-05-05T19:29:06.452Z,30.90
2023-05-05T19:34:09.506Z,31.88
2023-05-05T19:39:13.802Z,33.25
2023-05-05T19:44:18.802Z,29.92
2023-05-05T19:49:21.797Z,51.03
2023-05-05T19:54:25.996Z,44.00
2023-05-05T19:59:29.138Z,43.92
2023-05-05T20:04:32.155Z,39.40
2023-05-05T20:09:35.206Z,38.05
2023-05-05T20:14:38.272Z,39.17
2023-05-05T20:19:41.619Z,36.80
2023-05-05T20:24:44.628Z,35.80
2023-05-05T20:29:48.534Z,43.35
2023-05-05T20:34:51.568Z,35.47
2023-05-05T20:39:54.877Z,39.30
2023-05-05T20:44:57.847Z,49.75
2023-05-05T20:50:00.987Z,40.17
2023-05-05T20:55:04.793Z,41.60
2023-05-05T21:00:09.612Z,54.65
2023-05-05T21:05:12.932Z,27.02
2023-05-05T21:10:15.975Z,42.90
2023-05-05T21:15:19.020Z,39.08
2023-05-05T21:20:22.269Z,29.95
2023-05-05T21:25:25.697Z,35.50
2023-05-05T21:30:28.818Z,35.97
2023-05-05T21:35:31.928Z,38.65
2023-05-05T21:40:35.022Z,56.30
2023-05-05T21:45:38.025Z,43.35
2023-05-05T21:50:42.320Z,40.00
2023-05-05T21:55:45.541Z,32.15
2023-05-05T22:00:51.787Z,37.05
2023-05-05T22:05:54.903Z,37.72
2023-05-05T22:10:58.076Z,41.88
2023-05-05T22:16:01.215Z,36.72
2023-05-05T22:21:04.632Z,37.80
2023-05-05T22:26:08.470Z,39.65
2023-05-05T22:31:11.855Z,42.03
2023-05-05T22:36:15.387Z,38.25
2023-05-05T22:41:18.415Z,35.15
2023-05-05T22:46:21.470Z,45.28
2023-05-05T22:51:24.576Z,43.15
2023-05-05T22:56:27.629Z,37.20
2023-05-05T23:01:30.988Z,40.67
2023-05-05T23:06:34.071Z,32.80
2023-05-05T23:11:37.083Z,39.50
2023-05-05T23:16:40.165Z,40.67
2023-05-05T23:21:52.616Z,34.92
2023-05-05T23:26:59.851Z,36.20
2023-05-05T23:32:02.860Z,29.90
2023-05-05T23:37:06.431Z,23.52
2023-05-05T23:42:09.657Z,42.50
2023-05-05T23:47:12.707Z,23.83
2023-05-05T23:52:15.759Z,38.08
2023-05-05T23:57:18.800Z,21.15
